sensor_id;sensor_type;location;lat;lon;timestamp;temperature;humidity
5675;DHT22;2860;54.284;10.158;2023-09-18T00:00:47;17.60;99.90
5675;DHT22;2860;54.284;10.158;2023-09-18T00:03:17;17.60;99.90
5675;DHT22;2860;54.284;10.158;2023-09-18T00:05:45;17.60;99.90
5675;DHT22;2860;54.284;10.158;2023-09-18T00:08:10;17.60;99.90
5675;DHT22;2860;54.284;10.158;2023-09-18T00:10:36;17.50;99.90
5675;DHT22;2860;54.284;10.158;2023-09-18T00:13:02;17.50;99.90
5675;DHT22;2860;54.284;10.158;2023-09-18T00:15:33;17.40;99.90
5675;DHT22;2860;54.284;10.158;2023-09-18T00:17:59;17.40;99.90
5675;DHT22;2860;54.284;10.158;2023-09-18T00:20:24;17.40;99.90
5675;DHT22;2860;54.284;10.158;2023-09-18T00:22:54;17.30;99.90
5675;DHT22;2860;54.284;10.158;2023-09-18T00:25:20;17.30;99.90
5675;DHT22;2860;54.284;10.158;2023-09-18T00:27:46;17.30;99.90
5675;DHT22;2860;54.284;10.158;2023-09-18T00:30:11;17.20;99.90
5675;DHT22;2860;54.284;10.158;2023-09-18T00:32:37;17.20;99.90
5675;DHT22;2860;54.284;10.158;2023-09-18T00:35:03;17.20;99.90
5675;DHT22;2860;54.284;10.158;2023-09-18T00:37:29;17.10;99.90
5675;DHT22;2860;54.284;10.158;2023-09-18T00:39:54;17.10;99.90
5675;DHT22;2860;54.284;10.158;2023-09-18T00:42:20;17.10;99.90
5675;DHT22;2860;54.284;10.158;2023-09-18T00:44:48;17.00;99.90
5675;DHT22;2860;54.284;10.158;2023-09-18T00:47:14;17.00;99.90
5675;DHT22;2860;54.284;10.158;2023-09-18T00:49:43;16.90;99.90
5675;DHT22;2860;54.284;10.158;2023-09-18T00:52:10;16.90;99.90
5675;DHT22;2860;54.284;10.158;2023-09-18T00:54:37;16.90;99.90
5675;DHT22;2860;54.284;10.158;2023-09-18T00:57:04;16.90;99.90
5675;DHT22;2860;54.284;10.158;2023-09-18T00:59:30;16.90;99.90
5675;DHT22;2860;54.284;10.158;2023-09-18T01:01:56;16.90;99.90
5675;DHT22;2860;54.284;10.158;2023-09-18T01:04:23;16.90;99.90
5675;DHT22;2860;54.284;10.158;2023-09-18T01:06:50;16.80;99.90
5675;DHT22;2860;54.284;10.158;2023-09-18T01:09:17;16.80;99.90
5675;DHT22;2860;54.284;10.158;2023-09-18T01:17:23;16.70;99.90
5675;DHT22;2860;54.284;10.158;2023-09-18T01:19:49;16.70;99.90
5675;DHT22;2860;54.284;10.158;2023-09-18T01:22:19;16.60;99.90
5675;DHT22;2860;54.284;10.158;2023-09-18T01:24:46;16.50;99.90
5675;DHT22;2860;54.284;10.158;2023-09-18T01:27:17;16.50;99.90
5675;DHT22;2860;54.284;10.158;2023-09-18T01:29:46;16.40;99.90
5675;DHT22;2860;54.284;10.158;2023-09-18T01:32:13;16.30;99.90
5675;DHT22;2860;54.284;10.158;2023-09-18T01:34:53;16.30;99.90
5675;DHT22;2860;54.284;10.158;2023-09-18T01:37:28;16.30;99.90
5675;DHT22;2860;54.284;10.158;2023-09-18T01:39:54;16.20;99.90
5675;DHT22;2860;54.284;10.158;2023-09-18T01:42:25;16.20;99.90
5675;DHT22;2860;54.284;10.158;2023-09-18T01:44:52;16.20;99.90
5675;DHT22;2860;54.284;10.158;2023-09-18T01:47:19;16.20;99.90
5675;DHT22;2860;54.284;10.158;2023-09-18T01:49:46;16.20;99.90
5675;DHT22;2860;54.284;10.158;2023-09-18T01:52:11;16.20;99.90
5675;DHT22;2860;54.284;10.158;2023-09-18T01:54:37;16.10;99.90
5675;DHT22;2860;54.284;10.158;2023-09-18T01:57:03;16.10;99.90
5675;DHT22;2860;54.284;10.158;2023-09-18T01:59:30;16.10;99.90
5675;DHT22;2860;54.284;10.158;2023-09-18T02:01:55;16.10;99.90
5675;DHT22;2860;54.284;10.158;2023-09-18T02:04:21;16.10;99.90
5675;DHT22;2860;54.284;10.158;2023-09-18T02:06:49;16.10;99.90
5675;DHT22;2860;54.284;10.158;2023-09-18T02:09:15;16.20;99.90
5675;DHT22;2860;54.284;10.158;2023-09-18T02:11:45;16.20;99.90
5675;DHT22;2860;54.284;10.158;2023-09-18T02:14:11;16.20;99.90
5675;DHT22;2860;54.284;10.158;2023-09-18T02:16:38;16.20;99.90
5675;DHT22;2860;54.284;10.158;2023-09-18T02:19:07;16.20;99.90
5675;DHT22;2860;54.284;10.158;2023-09-18T02:21:34;16.20;99.90
5675;DHT22;2860;54.284;10.158;2023-09-18T02:23:59;16.20;99.90
5675;DHT22;2860;54.284;10.158;2023-09-18T02:26:25;16.20;99.90
5675;DHT22;2860;54.284;10.158;2023-09-18T02:28:54;16.20;99.90
5675;DHT22;2860;54.284;10.158;2023-09-18T02:31:20;16.20;99.90
5675;DHT22;2860;54.284;10.158;2023-09-18T02:33:45;16.20;99.90
5675;DHT22;2860;54.284;10.158;2023-09-18T02:36:12;16.20;99.90
5675;DHT22;2860;54.284;10.158;2023-09-18T02:38:37;16.20;99.90
5675;DHT22;2860;54.284;10.158;2023-09-18T02:41:03;16.20;99.90
5675;DHT22;2860;54.284;10.158;2023-09-18T02:43:29;16.20;99.90
5675;DHT22;2860;54.284;10.158;2023-09-18T02:45:54;16.20;99.90
5675;DHT22;2860;54.284;10.158;2023-09-18T02:48:20;16.20;99.90
5675;DHT22;2860;54.284;10.158;2023-09-18T02:50:45;16.20;99.90
5675;DHT22;2860;54.284;10.158;2023-09-18T02:53:20;16.30;99.90
5675;DHT22;2860;54.284;10.158;2023-09-18T02:55:47;16.30;99.90
5675;DHT22;2860;54.284;10.158;2023-09-18T02:58:12;16.30;99.90
5675;DHT22;2860;54.284;10.158;2023-09-18T03:00:42;16.20;99.90
5675;DHT22;2860;54.284;10.158;2023-09-18T03:03:12;16.20;99.90
5675;DHT22;2860;54.284;10.158;2023-09-18T03:05:38;16.20;99.90
5675;DHT22;2860;54.284;10.158;2023-09-18T03:08:03;16.20;99.90
5675;DHT22;2860;54.284;10.158;2023-09-18T03:10:33;16.20;99.90
5675;DHT22;2860;54.284;10.158;2023-09-18T03:13:00;16.20;99.90
5675;DHT22;2860;54.284;10.158;2023-09-18T03:15:25;16.20;99.90
5675;DHT22;2860;54.284;10.158;2023-09-18T03:17:51;16.20;99.90
5675;DHT22;2860;54.284;10.158;2023-09-18T03:20:16;16.20;99.90
5675;DHT22;2860;54.284;10.158;2023-09-18T03:22:42;16.20;99.90
5675;DHT22;2860;54.284;10.158;2023-09-18T03:25:07;16.20;99.90
5675;DHT22;2860;54.284;10.158;2023-09-18T03:27:33;16.10;99.90
5675;DHT22;2860;54.284;10.158;2023-09-18T03:29:59;16.10;99.90
5675;DHT22;2860;54.284;10.158;2023-09-18T03:32:24;16.10;99.90
5675;DHT22;2860;54.284;10.158;2023-09-18T03:34:53;16.10;99.90
5675;DHT22;2860;54.284;10.158;2023-09-18T03:37:19;16.10;99.90
5675;DHT22;2860;54.284;10.158;2023-09-18T03:39:44;16.00;99.90
5675;DHT22;2860;54.284;10.158;2023-09-18T03:42:10;16.00;99.90
5675;DHT22;2860;54.284;10.158;2023-09-18T03:44:36;16.00;99.90
5675;DHT22;2860;54.284;10.158;2023-09-18T03:47:01;16.00;99.90
5675;DHT22;2860;54.284;10.158;2023-09-18T03:49:29;16.00;99.90
5675;DHT22;2860;54.284;10.158;2023-09-18T03:51:54;16.00;99.90
5675;DHT22;2860;54.284;10.158;2023-09-18T03:54:20;16.10;99.90
5675;DHT22;2860;54.284;10.158;2023-09-18T03:56:45;16.10;99.90
5675;DHT22;2860;54.284;10.158;2023-09-18T03:59:12;16.10;99.90
5675;DHT22;2860;54.284;10.158;2023-09-18T04:01:37;16.10;99.90
5675;DHT22;2860;54.284;10.158;2023-09-18T04:04:03;16.10;99.90
5675;DHT22;2860;54.284;10.158;2023-09-18T04:06:36;16.10;99.90
5675;DHT22;2860;54.284;10.158;2023-09-18T04:09:03;16.10;99.90
5675;DHT22;2860;54.284;10.158;2023-09-18T04:11:29;16.10;99.90
5675;DHT22;2860;54.284;10.158;2023-09-18T04:13:58;16.00;99.90
5675;DHT22;2860;54.284;10.158;2023-09-18T04:16:25;16.00;99.90
5675;DHT22;2860;54.284;10.158;2023-09-18T04:18:50;16.10;99.90
5675;DHT22;2860;54.284;10.158;2023-09-18T04:21:16;16.10;99.90
5675;DHT22;2860;54.284;10.158;2023-09-18T04:23:41;16.00;99.90
5675;DHT22;2860;54.284;10.158;2023-09-18T04:26:07;16.00;99.90
5675;DHT22;2860;54.284;10.158;2023-09-18T04:28:32;16.00;99.90
5675;DHT22;2860;54.284;10.158;2023-09-18T04:30:58;16.00;99.90
5675;DHT22;2860;54.284;10.158;2023-09-18T04:33:23;16.00;99.90
5675;DHT22;2860;54.284;10.158;2023-09-18T04:35:49;16.00;99.90
5675;DHT22;2860;54.284;10.158;2023-09-18T04:38:14;16.00;99.90
5675;DHT22;2860;54.284;10.158;2023-09-18T04:40:41;16.10;99.90
5675;DHT22;2860;54.284;10.158;2023-09-18T04:43:06;16.10;99.90
5675;DHT22;2860;54.284;10.158;2023-09-18T04:45:32;16.20;99.90
5675;DHT22;2860;54.284;10.158;2023-09-18T04:47:58;16.20;99.90
5675;DHT22;2860;54.284;10.158;2023-09-18T04:50:23;16.20;99.90
5675;DHT22;2860;54.284;10.158;2023-09-18T04:52:50;16.30;99.90
5675;DHT22;2860;54.284;10.158;2023-09-18T04:55:17;16.30;99.90
5675;DHT22;2860;54.284;10.158;2023-09-18T04:57:42;16.30;99.90
5675;DHT22;2860;54.284;10.158;2023-09-18T05:00:08;16.30;99.90
5675;DHT22;2860;54.284;10.158;2023-09-18T05:02:35;16.30;99.90
5675;DHT22;2860;54.284;10.158;2023-09-18T05:05:01;16.30;99.90
5675;DHT22;2860;54.284;10.158;2023-09-18T05:07:28;16.20;99.90
5675;DHT22;2860;54.284;10.158;2023-09-18T05:09:54;16.20;99.90
5675;DHT22;2860;54.284;10.158;2023-09-18T05:12:19;16.20;99.90
5675;DHT22;2860;54.284;10.158;2023-09-18T05:14:45;16.20;99.90
5675;DHT22;2860;54.284;10.158;2023-09-18T05:17:15;16.20;99.90
5675;DHT22;2860;54.284;10.158;2023-09-18T05:19:41;16.20;99.90
5675;DHT22;2860;54.284;10.158;2023-09-18T05:22:08;16.20;99.90
5675;DHT22;2860;54.284;10.158;2023-09-18T05:24:36;16.30;99.90
5675;DHT22;2860;54.284;10.158;2023-09-18T05:27:01;16.30;99.90
5675;DHT22;2860;54.284;10.158;2023-09-18T05:29:27;16.30;99.90
5675;DHT22;2860;54.284;10.158;2023-09-18T05:31:53;16.40;99.90
5675;DHT22;2860;54.284;10.158;2023-09-18T05:34:18;16.50;99.90
5675;DHT22;2860;54.284;10.158;2023-09-18T05:36:44;16.50;99.90
5675;DHT22;2860;54.284;10.158;2023-09-18T05:39:09;16.50;99.90
5675;DHT22;2860;54.284;10.158;2023-09-18T05:41:38;16.50;99.90
5675;DHT22;2860;54.284;10.158;2023-09-18T05:44:04;16.50;99.90
5675;DHT22;2860;54.284;10.158;2023-09-18T05:46:30;16.60;99.90
5675;DHT22;2860;54.284;10.158;2023-09-18T05:48:56;16.60;99.90
5675;DHT22;2860;54.284;10.158;2023-09-18T05:51:22;16.70;99.90
5675;DHT22;2860;54.284;10.158;2023-09-18T05:53:48;16.70;99.90
5675;DHT22;2860;54.284;10.158;2023-09-18T05:56:14;16.80;99.90
5675;DHT22;2860;54.284;10.158;2023-09-18T05:58:42;16.90;99.90
5675;DHT22;2860;54.284;10.158;2023-09-18T06:01:07;17.10;99.90
5675;DHT22;2860;54.284;10.158;2023-09-18T06:03:33;17.30;99.90
5675;DHT22;2860;54.284;10.158;2023-09-18T06:06:02;17.30;99.90
5675;DHT22;2860;54.284;10.158;2023-09-18T06:08:28;17.50;99.90
5675;DHT22;2860;54.284;10.158;2023-09-18T06:10:54;17.50;99.90
5675;DHT22;2860;54.284;10.158;2023-09-18T06:13:20;17.60;99.90
5675;DHT22;2860;54.284;10.158;2023-09-18T06:15:46;17.60;99.90
5675;DHT22;2860;54.284;10.158;2023-09-18T06:18:11;17.70;99.90
5675;DHT22;2860;54.284;10.158;2023-09-18T06:20:38;17.70;99.90
5675;DHT22;2860;54.284;10.158;2023-09-18T06:23:05;17.80;99.90
5675;DHT22;2860;54.284;10.158;2023-09-18T06:25:30;17.80;99.90
5675;DHT22;2860;54.284;10.158;2023-09-18T06:27:56;17.90;99.90
5675;DHT22;2860;54.284;10.158;2023-09-18T06:30:22;18.00;99.90
5675;DHT22;2860;54.284;10.158;2023-09-18T06:32:48;18.00;99.90
5675;DHT22;2860;54.284;10.158;2023-09-18T06:35:13;18.10;99.90
5675;DHT22;2860;54.284;10.158;2023-09-18T06:37:45;18.10;99.90
5675;DHT22;2860;54.284;10.158;2023-09-18T06:40:10;18.20;99.90
5675;DHT22;2860;54.284;10.158;2023-09-18T06:42:36;18.20;99.90
5675;DHT22;2860;54.284;10.158;2023-09-18T06:45:01;18.20;99.90
5675;DHT22;2860;54.284;10.158;2023-09-18T06:47:32;18.20;99.90
5675;DHT22;2860;54.284;10.158;2023-09-18T06:49:58;18.30;99.90
5675;DHT22;2860;54.284;10.158;2023-09-18T06:52:23;18.50;99.90
5675;DHT22;2860;54.284;10.158;2023-09-18T06:54:50;18.60;99.90
5675;DHT22;2860;54.284;10.158;2023-09-18T06:57:16;18.80;99.90
5675;DHT22;2860;54.284;10.158;2023-09-18T06:59:44;19.00;99.90
5675;DHT22;2860;54.284;10.158;2023-09-18T07:02:10;19.20;99.90
5675;DHT22;2860;54.284;10.158;2023-09-18T07:04:35;19.30;99.90
5675;DHT22;2860;54.284;10.158;2023-09-18T07:07:02;19.40;99.90
5675;DHT22;2860;54.284;10.158;2023-09-18T07:09:28;19.50;99.90
5675;DHT22;2860;54.284;10.158;2023-09-18T07:11:53;19.50;99.90
5675;DHT22;2860;54.284;10.158;2023-09-18T07:14:19;19.60;99.90
5675;DHT22;2860;54.284;10.158;2023-09-18T07:16:45;19.60;99.90
5675;DHT22;2860;54.284;10.158;2023-09-18T07:19:10;19.70;99.90
5675;DHT22;2860;54.284;10.158;2023-09-18T07:21:37;19.80;99.90
5675;DHT22;2860;54.284;10.158;2023-09-18T07:24:04;19.80;99.90
5675;DHT22;2860;54.284;10.158;2023-09-18T07:26:29;19.90;99.90
5675;DHT22;2860;54.284;10.158;2023-09-18T07:28:55;19.90;99.90
5675;DHT22;2860;54.284;10.158;2023-09-18T07:31:20;20.00;99.90
5675;DHT22;2860;54.284;10.158;2023-09-18T07:33:46;20.00;99.90
5675;DHT22;2860;54.284;10.158;2023-09-18T07:36:12;20.00;99.90
5675;DHT22;2860;54.284;10.158;2023-09-18T07:38:40;20.00;99.90
5675;DHT22;2860;54.284;10.158;2023-09-18T07:41:08;20.00;99.90
5675;DHT22;2860;54.284;10.158;2023-09-18T07:43:34;20.10;99.90
5675;DHT22;2860;54.284;10.158;2023-09-18T07:45:59;20.20;99.90
5675;DHT22;2860;54.284;10.158;2023-09-18T07:48:27;20.30;99.90
5675;DHT22;2860;54.284;10.158;2023-09-18T07:50:52;20.50;99.90
5675;DHT22;2860;54.284;10.158;2023-09-18T07:53:20;20.70;99.90
5675;DHT22;2860;54.284;10.158;2023-09-18T07:55:45;20.70;99.90
5675;DHT22;2860;54.284;10.158;2023-09-18T07:58:11;20.70;99.90
5675;DHT22;2860;54.284;10.158;2023-09-18T08:00:37;20.60;99.90
5675;DHT22;2860;54.284;10.158;2023-09-18T08:03:02;20.60;99.90
5675;DHT22;2860;54.284;10.158;2023-09-18T08:05:28;20.70;99.90
5675;DHT22;2860;54.284;10.158;2023-09-18T08:07:55;20.70;99.90
5675;DHT22;2860;54.284;10.158;2023-09-18T08:10:25;20.70;99.90
5675;DHT22;2860;54.284;10.158;2023-09-18T08:12:53;20.80;99.90
5675;DHT22;2860;54.284;10.158;2023-09-18T08:15:19;20.80;99.90
5675;DHT22;2860;54.284;10.158;2023-09-18T08:17:46;20.90;99.90
5675;DHT22;2860;54.284;10.158;2023-09-18T08:20:12;20.90;99.90
5675;DHT22;2860;54.284;10.158;2023-09-18T08:22:38;21.00;99.90
5675;DHT22;2860;54.284;10.158;2023-09-18T08:25:05;21.10;99.90
5675;DHT22;2860;54.284;10.158;2023-09-18T08:27:33;21.30;99.90
5675;DHT22;2860;54.284;10.158;2023-09-18T08:29:58;21.40;99.90
5675;DHT22;2860;54.284;10.158;2023-09-18T08:32:24;21.50;99.90
5675;DHT22;2860;54.284;10.158;2023-09-18T08:34:49;21.60;99.90
5675;DHT22;2860;54.284;10.158;2023-09-18T08:37:15;21.80;99.90
5675;DHT22;2860;54.284;10.158;2023-09-18T08:39:40;21.90;99.90
5675;DHT22;2860;54.284;10.158;2023-09-18T08:42:09;21.90;99.90
5675;DHT22;2860;54.284;10.158;2023-09-18T08:44:38;22.10;99.90
5675;DHT22;2860;54.284;10.158;2023-09-18T08:47:06;22.20;99.90
5675;DHT22;2860;54.284;10.158;2023-09-18T08:49:34;22.30;99.90
5675;DHT22;2860;54.284;10.158;2023-09-18T08:52:00;22.30;99.90
5675;DHT22;2860;54.284;10.158;2023-09-18T08:54:26;22.30;99.90
5675;DHT22;2860;54.284;10.158;2023-09-18T08:56:54;22.20;99.90
5675;DHT22;2860;54.284;10.158;2023-09-18T08:59:21;22.20;99.90
5675;DHT22;2860;54.284;10.158;2023-09-18T09:01:47;22.20;99.90
5675;DHT22;2860;54.284;10.158;2023-09-18T09:04:13;22.10;99.90
5675;DHT22;2860;54.284;10.158;2023-09-18T09:06:38;21.90;99.90
5675;DHT22;2860;54.284;10.158;2023-09-18T09:09:04;21.80;99.90
5675;DHT22;2860;54.284;10.158;2023-09-18T09:11:30;21.70;99.90
5675;DHT22;2860;54.284;10.158;2023-09-18T09:14:12;21.60;99.90
5675;DHT22;2860;54.284;10.158;2023-09-18T09:16:55;21.60;99.90
5675;DHT22;2860;54.284;10.158;2023-09-18T09:19:32;21.60;99.90
5675;DHT22;2860;54.284;10.158;2023-09-18T09:21:59;21.70;99.90
5675;DHT22;2860;54.284;10.158;2023-09-18T09:25:03;21.70;99.90
5675;DHT22;2860;54.284;10.158;2023-09-18T09:27:44;21.60;99.90
5675;DHT22;2860;54.284;10.158;2023-09-18T09:30:10;21.50;99.90
5675;DHT22;2860;54.284;10.158;2023-09-18T09:32:49;21.40;99.90
5675;DHT22;2860;54.284;10.158;2023-09-18T09:35:35;21.40;99.90
5675;DHT22;2860;54.284;10.158;2023-09-18T09:38:08;21.50;99.90
5675;DHT22;2860;54.284;10.158;2023-09-18T09:40:34;21.60;99.90
5675;DHT22;2860;54.284;10.158;2023-09-18T09:43:00;21.70;99.90
5675;DHT22;2860;54.284;10.158;2023-09-18T09:45:29;21.70;99.90
5675;DHT22;2860;54.284;10.158;2023-09-18T09:47:56;21.80;99.90
5675;DHT22;2860;54.284;10.158;2023-09-18T09:50:24;21.80;99.90
5675;DHT22;2860;54.284;10.158;2023-09-18T09:52:52;21.90;99.90
5675;DHT22;2860;54.284;10.158;2023-09-18T09:55:25;22.00;99.90
5675;DHT22;2860;54.284;10.158;2023-09-18T09:57:56;22.10;99.90
5675;DHT22;2860;54.284;10.158;2023-09-18T10:00:25;22.30;99.90
5675;DHT22;2860;54.284;10.158;2023-09-18T10:03:03;22.40;99.90
5675;DHT22;2860;54.284;10.158;2023-09-18T10:05:32;22.50;99.90
5675;DHT22;2860;54.284;10.158;2023-09-18T10:08:12;22.50;99.90
5675;DHT22;2860;54.284;10.158;2023-09-18T10:10:48;22.60;99.90
5675;DHT22;2860;54.284;10.158;2023-09-18T10:13:20;22.60;99.90
5675;DHT22;2860;54.284;10.158;2023-09-18T10:15:48;22.60;99.90
5675;DHT22;2860;54.284;10.158;2023-09-18T10:24:22;23.00;99.90
5675;DHT22;2860;54.284;10.158;2023-09-18T10:26:59;23.10;99.90
5675;DHT22;2860;54.284;10.158;2023-09-18T10:29:26;23.30;99.90
5675;DHT22;2860;54.284;10.158;2023-09-18T10:31:53;23.40;99.90
5675;DHT22;2860;54.284;10.158;2023-09-18T10:34:20;23.60;99.90
5675;DHT22;2860;54.284;10.158;2023-09-18T10:36:47;23.70;99.90
5675;DHT22;2860;54.284;10.158;2023-09-18T10:39:13;23.80;99.90
5675;DHT22;2860;54.284;10.158;2023-09-18T10:41:47;23.70;99.90
5675;DHT22;2860;54.284;10.158;2023-09-18T10:44:13;23.70;99.90
5675;DHT22;2860;54.284;10.158;2023-09-18T10:46:39;23.50;99.90
5675;DHT22;2860;54.284;10.158;2023-09-18T10:49:05;23.40;99.90
5675;DHT22;2860;54.284;10.158;2023-09-18T10:51:31;23.30;99.90
5675;DHT22;2860;54.284;10.158;2023-09-18T10:53:59;23.20;99.90
5675;DHT22;2860;54.284;10.158;2023-09-18T10:56:25;23.00;99.90
5675;DHT22;2860;54.284;10.158;2023-09-18T10:59:01;22.90;99.90
5675;DHT22;2860;54.284;10.158;2023-09-18T11:01:30;22.90;99.90
5675;DHT22;2860;54.284;10.158;2023-09-18T11:04:04;22.90;99.90
5675;DHT22;2860;54.284;10.158;2023-09-18T11:06:29;23.00;99.90
5675;DHT22;2860;54.284;10.158;2023-09-18T11:09:05;23.00;99.90
5675;DHT22;2860;54.284;10.158;2023-09-18T11:11:32;23.10;99.90
5675;DHT22;2860;54.284;10.158;2023-09-18T11:14:00;23.20;99.90
5675;DHT22;2860;54.284;10.158;2023-09-18T11:21:31;23.30;99.90
5675;DHT22;2860;54.284;10.158;2023-09-18T11:24:01;23.40;99.90
5675;DHT22;2860;54.284;10.158;2023-09-18T11:26:34;23.50;99.90
5675;DHT22;2860;54.284;10.158;2023-09-18T11:29:04;23.50;99.90
5675;DHT22;2860;54.284;10.158;2023-09-18T11:31:50;23.50;99.90
5675;DHT22;2860;54.284;10.158;2023-09-18T11:34:26;23.50;99.90
5675;DHT22;2860;54.284;10.158;2023-09-18T11:36:57;23.60;99.90
5675;DHT22;2860;54.284;10.158;2023-09-18T11:39:39;23.60;99.90
5675;DHT22;2860;54.284;10.158;2023-09-18T11:42:11;23.70;99.90
5675;DHT22;2860;54.284;10.158;2023-09-18T11:44:38;23.80;99.90
5675;DHT22;2860;54.284;10.158;2023-09-18T11:47:11;23.90;99.90
5675;DHT22;2860;54.284;10.158;2023-09-18T11:49:46;24.00;99.90
5675;DHT22;2860;54.284;10.158;2023-09-18T11:52:16;24.10;99.90
5675;DHT22;2860;54.284;10.158;2023-09-18T11:54:42;24.20;99.90
5675;DHT22;2860;54.284;10.158;2023-09-18T11:57:09;24.30;99.90
5675;DHT22;2860;54.284;10.158;2023-09-18T11:59:39;24.50;99.90
5675;DHT22;2860;54.284;10.158;2023-09-18T12:02:06;24.60;99.90
5675;DHT22;2860;54.284;10.158;2023-09-18T12:04:32;24.60;99.90
5675;DHT22;2860;54.284;10.158;2023-09-18T12:06:59;24.30;99.90
5675;DHT22;2860;54.284;10.158;2023-09-18T12:09:32;23.90;99.90
5675;DHT22;2860;54.284;10.158;2023-09-18T12:11:59;23.50;99.90
5675;DHT22;2860;54.284;10.158;2023-09-18T12:14:30;23.40;99.90
5675;DHT22;2860;54.284;10.158;2023-09-18T12:16:56;23.20;99.90
5675;DHT22;2860;54.284;10.158;2023-09-18T12:19:22;23.20;99.90
5675;DHT22;2860;54.284;10.158;2023-09-18T12:21:49;23.20;99.90
5675;DHT22;2860;54.284;10.158;2023-09-18T12:24:24;23.00;99.90
5675;DHT22;2860;54.284;10.158;2023-09-18T12:26:54;23.00;99.90
5675;DHT22;2860;54.284;10.158;2023-09-18T12:29:20;23.20;99.90
5675;DHT22;2860;54.284;10.158;2023-09-18T12:31:47;23.40;99.90
5675;DHT22;2860;54.284;10.158;2023-09-18T12:34:17;23.50;99.90
5675;DHT22;2860;54.284;10.158;2023-09-18T12:36:43;23.60;99.90
5675;DHT22;2860;54.284;10.158;2023-09-18T12:39:09;23.70;99.90
5675;DHT22;2860;54.284;10.158;2023-09-18T12:41:36;23.60;99.90
5675;DHT22;2860;54.284;10.158;2023-09-18T12:44:02;23.50;99.90
5675;DHT22;2860;54.284;10.158;2023-09-18T12:46:29;23.40;99.90
5675;DHT22;2860;54.284;10.158;2023-09-18T12:48:55;23.40;99.90
5675;DHT22;2860;54.284;10.158;2023-09-18T12:51:29;23.20;99.90
5675;DHT22;2860;54.284;10.158;2023-09-18T12:54:01;23.10;99.90
5675;DHT22;2860;54.284;10.158;2023-09-18T12:56:31;23.00;99.90
5675;DHT22;2860;54.284;10.158;2023-09-18T12:58:58;22.90;99.90
5675;DHT22;2860;54.284;10.158;2023-09-18T13:01:24;22.90;99.90
5675;DHT22;2860;54.284;10.158;2023-09-18T13:03:53;22.90;99.90
5675;DHT22;2860;54.284;10.158;2023-09-18T13:06:19;22.90;99.90
5675;DHT22;2860;54.284;10.158;2023-09-18T13:08:46;22.90;99.90
5675;DHT22;2860;54.284;10.158;2023-09-18T13:11:12;22.90;99.90
5675;DHT22;2860;54.284;10.158;2023-09-18T13:13:40;22.90;99.90
5675;DHT22;2860;54.284;10.158;2023-09-18T13:16:08;22.80;99.90
5675;DHT22;2860;54.284;10.158;2023-09-18T13:18:37;22.90;99.90
5675;DHT22;2860;54.284;10.158;2023-09-18T13:21:11;22.90;99.90
5675;DHT22;2860;54.284;10.158;2023-09-18T13:23:37;22.90;99.90
5675;DHT22;2860;54.284;10.158;2023-09-18T13:26:04;23.00;99.90
5675;DHT22;2860;54.284;10.158;2023-09-18T13:28:30;23.20;99.90
5675;DHT22;2860;54.284;10.158;2023-09-18T13:30:58;23.40;99.90
5675;DHT22;2860;54.284;10.158;2023-09-18T13:33:25;23.50;99.90
5675;DHT22;2860;54.284;10.158;2023-09-18T13:35:51;23.50;99.90
5675;DHT22;2860;54.284;10.158;2023-09-18T13:38:18;23.60;99.90
5675;DHT22;2860;54.284;10.158;2023-09-18T13:40:46;23.60;99.90
5675;DHT22;2860;54.284;10.158;2023-09-18T13:43:13;23.60;99.90
5675;DHT22;2860;54.284;10.158;2023-09-18T13:45:41;23.80;99.90
5675;DHT22;2860;54.284;10.158;2023-09-18T13:48:07;23.90;99.90
5675;DHT22;2860;54.284;10.158;2023-09-18T13:50:34;23.90;99.90
5675;DHT22;2860;54.284;10.158;2023-09-18T13:53:01;23.90;99.90
5675;DHT22;2860;54.284;10.158;2023-09-18T13:55:26;24.00;99.90
5675;DHT22;2860;54.284;10.158;2023-09-18T13:57:52;23.90;99.90
5675;DHT22;2860;54.284;10.158;2023-09-18T14:00:18;23.90;99.90
5675;DHT22;2860;54.284;10.158;2023-09-18T14:02:43;23.90;99.90
5675;DHT22;2860;54.284;10.158;2023-09-18T14:05:09;23.90;99.90
5675;DHT22;2860;54.284;10.158;2023-09-18T14:07:37;24.00;99.90
5675;DHT22;2860;54.284;10.158;2023-09-18T14:10:06;24.10;99.90
5675;DHT22;2860;54.284;10.158;2023-09-18T14:12:32;24.20;99.90
5675;DHT22;2860;54.284;10.158;2023-09-18T14:14:58;24.20;99.90
5675;DHT22;2860;54.284;10.158;2023-09-18T14:17:25;24.10;99.90
5675;DHT22;2860;54.284;10.158;2023-09-18T14:19:50;24.00;99.90
5675;DHT22;2860;54.284;10.158;2023-09-18T14:22:18;23.90;99.90
5675;DHT22;2860;54.284;10.158;2023-09-18T14:24:44;23.70;99.90
5675;DHT22;2860;54.284;10.158;2023-09-18T14:27:09;23.60;99.90
5675;DHT22;2860;54.284;10.158;2023-09-18T14:29:37;23.40;99.90
5675;DHT22;2860;54.284;10.158;2023-09-18T14:32:03;23.20;99.90
5675;DHT22;2860;54.284;10.158;2023-09-18T14:34:29;23.10;99.90
5675;DHT22;2860;54.284;10.158;2023-09-18T14:36:56;22.90;99.90
5675;DHT22;2860;54.284;10.158;2023-09-18T14:39:22;22.80;99.90
5675;DHT22;2860;54.284;10.158;2023-09-18T14:41:47;22.70;99.90
5675;DHT22;2860;54.284;10.158;2023-09-18T14:44:13;22.70;99.90
5675;DHT22;2860;54.284;10.158;2023-09-18T14:46:39;22.80;99.90
5675;DHT22;2860;54.284;10.158;2023-09-18T14:49:05;22.90;99.90
5675;DHT22;2860;54.284;10.158;2023-09-18T14:51:34;23.00;99.90
5675;DHT22;2860;54.284;10.158;2023-09-18T14:54:00;23.20;99.90
5675;DHT22;2860;54.284;10.158;2023-09-18T14:56:26;23.40;99.90
5675;DHT22;2860;54.284;10.158;2023-09-18T14:58:52;23.60;99.90
5675;DHT22;2860;54.284;10.158;2023-09-18T15:01:18;23.80;99.90
5675;DHT22;2860;54.284;10.158;2023-09-18T15:03:44;23.90;99.90
5675;DHT22;2860;54.284;10.158;2023-09-18T15:06:10;24.00;99.90
5675;DHT22;2860;54.284;10.158;2023-09-18T15:08:36;24.30;99.90
5675;DHT22;2860;54.284;10.158;2023-09-18T15:11:02;24.40;99.90
5675;DHT22;2860;54.284;10.158;2023-09-18T15:13:29;24.50;99.90
5675;DHT22;2860;54.284;10.158;2023-09-18T15:15:55;24.40;99.90
5675;DHT22;2860;54.284;10.158;2023-09-18T15:18:21;24.40;99.90
5675;DHT22;2860;54.284;10.158;2023-09-18T15:20:46;24.40;99.90
5675;DHT22;2860;54.284;10.158;2023-09-18T15:23:13;24.30;99.90
5675;DHT22;2860;54.284;10.158;2023-09-18T15:25:39;24.20;99.90
5675;DHT22;2860;54.284;10.158;2023-09-18T15:28:06;24.00;99.90
5675;DHT22;2860;54.284;10.158;2023-09-18T15:30:32;23.80;99.90
5675;DHT22;2860;54.284;10.158;2023-09-18T15:32:58;23.70;99.90
5675;DHT22;2860;54.284;10.158;2023-09-18T15:35:24;23.50;99.90
5675;DHT22;2860;54.284;10.158;2023-09-18T15:37:50;23.50;99.90
5675;DHT22;2860;54.284;10.158;2023-09-18T15:40:16;23.40;99.90
5675;DHT22;2860;54.284;10.158;2023-09-18T15:42:44;23.40;99.90
5675;DHT22;2860;54.284;10.158;2023-09-18T15:45:10;23.40;99.90
5675;DHT22;2860;54.284;10.158;2023-09-18T15:47:40;23.40;99.90
5675;DHT22;2860;54.284;10.158;2023-09-18T15:50:06;23.40;99.90
5675;DHT22;2860;54.284;10.158;2023-09-18T15:52:32;23.40;99.90
5675;DHT22;2860;54.284;10.158;2023-09-18T15:54:58;23.20;99.90
5675;DHT22;2860;54.284;10.158;2023-09-18T15:57:30;23.20;99.90
5675;DHT22;2860;54.284;10.158;2023-09-18T15:59:56;23.10;99.90
5675;DHT22;2860;54.284;10.158;2023-09-18T16:02:23;23.00;99.90